sensor_id;sensor_type;location;lat;lon;timestamp;P1;durP1;ratioP1;P2;durP2;ratioP2
76733;SDS011;65660;53.288;14.666;2023-10-31T00:04:43;27.87;;;14.90;;
76733;SDS011;65660;53.288;14.666;2023-10-31T00:09:43;20.67;;;12.50;;
76733;SDS011;65660;53.288;14.666;2023-10-31T00:14:44;13.57;;;7.90;;
76733;SDS011;65660;53.288;14.666;2023-10-31T00:19:44;17.87;;;9.63;;
76733;SDS011;65660;53.288;14.666;2023-10-31T00:24:45;15.40;;;8.93;;
76733;SDS011;65660;53.288;14.666;2023-10-31T00:29:45;15.77;;;7.13;;
76733;SDS011;65660;53.288;14.666;2023-10-31T00:34:46;18.93;;;13.07;;
76733;SDS011;65660;53.288;14.666;2023-10-31T00:39:46;15.43;;;9.30;;
76733;SDS011;65660;53.288;14.666;2023-10-31T00:44:47;12.67;;;7.70;;
76733;SDS011;65660;53.288;14.666;2023-10-31T00:49:48;9.50;;;5.77;;
76733;SDS011;65660;53.288;14.666;2023-10-31T00:54:48;13.80;;;7.63;;
76733;SDS011;65660;53.288;14.666;2023-10-31T00:59:48;14.47;;;7.03;;
76733;SDS011;65660;53.288;14.666;2023-10-31T01:04:49;13.83;;;7.33;;
76733;SDS011;65660;53.288;14.666;2023-10-31T01:09:49;11.33;;;6.87;;
76733;SDS011;65660;53.288;14.666;2023-10-31T01:14:50;12.83;;;7.73;;
76733;SDS011;65660;53.288;14.666;2023-10-31T01:19:50;10.20;;;6.13;;
76733;SDS011;65660;53.288;14.666;2023-10-31T01:24:51;13.13;;;7.47;;
76733;SDS011;65660;53.288;14.666;2023-10-31T01:29:51;13.03;;;7.23;;
76733;SDS011;65660;53.288;14.666;2023-10-31T01:34:52;14.90;;;8.47;;
76733;SDS011;65660;53.288;14.666;2023-10-31T01:39:52;12.07;;;7.33;;
76733;SDS011;65660;53.288;14.666;2023-10-31T01:44:53;14.90;;;8.73;;
76733;SDS011;65660;53.288;14.666;2023-10-31T01:49:54;29.23;;;18.03;;
76733;SDS011;65660;53.288;14.666;2023-10-31T01:54:54;27.33;;;18.47;;
76733;SDS011;65660;53.288;14.666;2023-10-31T01:59:55;27.83;;;17.77;;
76733;SDS011;65660;53.288;14.666;2023-10-31T02:04:55;12.60;;;7.97;;
76733;SDS011;65660;53.288;14.666;2023-10-31T02:09:56;12.37;;;8.07;;
76733;SDS011;65660;53.288;14.666;2023-10-31T02:14:57;13.00;;;8.33;;
76733;SDS011;65660;53.288;14.666;2023-10-31T02:19:57;12.30;;;8.23;;
76733;SDS011;65660;53.288;14.666;2023-10-31T02:24:58;13.90;;;7.60;;
76733;SDS011;65660;53.288;14.666;2023-10-31T02:29:58;15.20;;;7.70;;
76733;SDS011;65660;53.288;14.666;2023-10-31T02:34:59;16.43;;;9.80;;
76733;SDS011;65660;53.288;14.666;2023-10-31T02:39:59;11.83;;;8.30;;
76733;SDS011;65660;53.288;14.666;2023-10-31T02:45:00;18.40;;;10.03;;
76733;SDS011;65660;53.288;14.666;2023-10-31T02:50:01;13.87;;;9.33;;
76733;SDS011;65660;53.288;14.666;2023-10-31T02:55:01;15.40;;;9.13;;
76733;SDS011;65660;53.288;14.666;2023-10-31T03:00:02;15.03;;;9.87;;
76733;SDS011;65660;53.288;14.666;2023-10-31T03:05:03;13.00;;;9.43;;
76733;SDS011;65660;53.288;14.666;2023-10-31T03:10:03;14.50;;;9.20;;
76733;SDS011;65660;53.288;14.666;2023-10-31T03:15:04;15.87;;;10.33;;
76733;SDS011;65660;53.288;14.666;2023-10-31T03:20:05;12.37;;;9.03;;
76733;SDS011;65660;53.288;14.666;2023-10-31T03:25:06;13.70;;;9.43;;
76733;SDS011;65660;53.288;14.666;2023-10-31T03:30:07;20.20;;;13.07;;
76733;SDS011;65660;53.288;14.666;2023-10-31T03:35:08;22.00;;;11.87;;
76733;SDS011;65660;53.288;14.666;2023-10-31T03:40:08;19.17;;;11.33;;
76733;SDS011;65660;53.288;14.666;2023-10-31T03:45:09;16.80;;;11.03;;
76733;SDS011;65660;53.288;14.666;2023-10-31T03:50:10;18.63;;;11.47;;
76733;SDS011;65660;53.288;14.666;2023-10-31T03:55:10;21.43;;;11.60;;
76733;SDS011;65660;53.288;14.666;2023-10-31T04:00:11;18.70;;;10.90;;
76733;SDS011;65660;53.288;14.666;2023-10-31T04:05:12;13.17;;;10.20;;
76733;SDS011;65660;53.288;14.666;2023-10-31T04:10:12;15.07;;;10.53;;
76733;SDS011;65660;53.288;14.666;2023-10-31T04:15:13;20.07;;;11.80;;
76733;SDS011;65660;53.288;14.666;2023-10-31T04:20:13;21.60;;;13.40;;
76733;SDS011;65660;53.288;14.666;2023-10-31T04:25:15;20.13;;;12.57;;
76733;SDS011;65660;53.288;14.666;2023-10-31T04:30:15;19.13;;;11.73;;
76733;SDS011;65660;53.288;14.666;2023-10-31T04:35:16;19.33;;;11.37;;
76733;SDS011;65660;53.288;14.666;2023-10-31T04:40:16;21.87;;;13.87;;
76733;SDS011;65660;53.288;14.666;2023-10-31T04:45:17;19.47;;;12.73;;
76733;SDS011;65660;53.288;14.666;2023-10-31T04:50:17;23.80;;;14.20;;
76733;SDS011;65660;53.288;14.666;2023-10-31T04:55:18;23.30;;;14.07;;
76733;SDS011;65660;53.288;14.666;2023-10-31T05:00:18;21.93;;;13.93;;
76733;SDS011;65660;53.288;14.666;2023-10-31T05:05:19;24.47;;;14.37;;
76733;SDS011;65660;53.288;14.666;2023-10-31T05:10:20;22.83;;;14.17;;
76733;SDS011;65660;53.288;14.666;2023-10-31T05:15:20;22.83;;;15.07;;
76733;SDS011;65660;53.288;14.666;2023-10-31T05:20:21;18.73;;;12.77;;
76733;SDS011;65660;53.288;14.666;2023-10-31T05:25:21;20.07;;;13.77;;
76733;SDS011;65660;53.288;14.666;2023-10-31T05:30:22;24.33;;;14.23;;
76733;SDS011;65660;53.288;14.666;2023-10-31T05:35:22;28.53;;;17.10;;
76733;SDS011;65660;53.288;14.666;2023-10-31T05:40:23;23.73;;;14.80;;
76733;SDS011;65660;53.288;14.666;2023-10-31T05:45:23;21.33;;;14.27;;
76733;SDS011;65660;53.288;14.666;2023-10-31T05:50:24;22.10;;;13.97;;
76733;SDS011;65660;53.288;14.666;2023-10-31T05:55:24;20.40;;;13.87;;
76733;SDS011;65660;53.288;14.666;2023-10-31T06:00:25;18.77;;;13.13;;
76733;SDS011;65660;53.288;14.666;2023-10-31T06:05:25;21.97;;;13.87;;
76733;SDS011;65660;53.288;14.666;2023-10-31T06:10:26;20.40;;;13.23;;
76733;SDS011;65660;53.288;14.666;2023-10-31T06:15:26;21.43;;;13.07;;
76733;SDS011;65660;53.288;14.666;2023-10-31T06:20:27;22.97;;;13.90;;
76733;SDS011;65660;53.288;14.666;2023-10-31T06:25:27;20.73;;;13.40;;
76733;SDS011;65660;53.288;14.666;2023-10-31T06:30:28;26.40;;;16.33;;
76733;SDS011;65660;53.288;14.666;2023-10-31T06:35:28;22.23;;;14.50;;
76733;SDS011;65660;53.288;14.666;2023-10-31T06:40:29;22.63;;;14.57;;
76733;SDS011;65660;53.288;14.666;2023-10-31T06:45:29;21.37;;;14.33;;
76733;SDS011;65660;53.288;14.666;2023-10-31T06:50:30;30.87;;;16.50;;
76733;SDS011;65660;53.288;14.666;2023-10-31T06:55:30;22.27;;;14.07;;
76733;SDS011;65660;53.288;14.666;2023-10-31T07:00:31;24.67;;;13.47;;
76733;SDS011;65660;53.288;14.666;2023-10-31T07:05:31;23.43;;;14.77;;
76733;SDS011;65660;53.288;14.666;2023-10-31T07:10:32;28.97;;;15.87;;
76733;SDS011;65660;53.288;14.666;2023-10-31T07:15:32;30.30;;;15.50;;
76733;SDS011;65660;53.288;14.666;2023-10-31T07:20:33;26.40;;;15.00;;
76733;SDS011;65660;53.288;14.666;2023-10-31T07:25:33;23.43;;;15.03;;
76733;SDS011;65660;53.288;14.666;2023-10-31T07:30:34;28.90;;;16.70;;
76733;SDS011;65660;53.288;14.666;2023-10-31T07:35:34;25.60;;;15.80;;
76733;SDS011;65660;53.288;14.666;2023-10-31T07:40:35;26.60;;;16.33;;
76733;SDS011;65660;53.288;14.666;2023-10-31T07:45:35;27.53;;;16.53;;
76733;SDS011;65660;53.288;14.666;2023-10-31T07:50:36;21.43;;;13.73;;
76733;SDS011;65660;53.288;14.666;2023-10-31T07:55:36;25.13;;;14.23;;
76733;SDS011;65660;53.288;14.666;2023-10-31T08:00:37;22.90;;;13.80;;
76733;SDS011;65660;53.288;14.666;2023-10-31T08:05:38;25.97;;;14.30;;
76733;SDS011;65660;53.288;14.666;2023-10-31T08:10:38;25.40;;;14.70;;
76733;SDS011;65660;53.288;14.666;2023-10-31T08:15:38;19.93;;;13.03;;
76733;SDS011;65660;53.288;14.666;2023-10-31T08:20:39;19.60;;;12.90;;
76733;SDS011;65660;53.288;14.666;2023-10-31T08:25:39;23.27;;;13.90;;
76733;SDS011;65660;53.288;14.666;2023-10-31T08:30:40;21.90;;;12.60;;
76733;SDS011;65660;53.288;14.666;2023-10-31T08:35:40;21.20;;;13.03;;
76733;SDS011;65660;53.288;14.666;2023-10-31T08:40:41;20.20;;;11.50;;
76733;SDS011;65660;53.288;14.666;2023-10-31T08:45:42;19.40;;;11.60;;
76733;SDS011;65660;53.288;14.666;2023-10-31T08:50:42;15.33;;;9.73;;
76733;SDS011;65660;53.288;14.666;2023-10-31T08:55:43;16.77;;;10.00;;
76733;SDS011;65660;53.288;14.666;2023-10-31T09:00:44;15.20;;;9.87;;
76733;SDS011;65660;53.288;14.666;2023-10-31T09:05:44;14.80;;;9.63;;
76733;SDS011;65660;53.288;14.666;2023-10-31T09:10:45;14.98;;;8.73;;
76733;SDS011;65660;53.288;14.666;2023-10-31T09:15:45;11.07;;;7.57;;
76733;SDS011;65660;53.288;14.666;2023-10-31T09:20:46;13.48;;;7.97;;
76733;SDS011;65660;53.288;14.666;2023-10-31T09:25:46;12.07;;;8.10;;
76733;SDS011;65660;53.288;14.666;2023-10-31T09:30:47;14.98;;;9.15;;
76733;SDS011;65660;53.288;14.666;2023-10-31T09:35:47;14.63;;;9.52;;
76733;SDS011;65660;53.288;14.666;2023-10-31T09:40:48;11.50;;;8.05;;
76733;SDS011;65660;53.288;14.666;2023-10-31T09:45:49;11.32;;;7.60;;
76733;SDS011;65660;53.288;14.666;2023-10-31T09:50:49;11.95;;;7.20;;
76733;SDS011;65660;53.288;14.666;2023-10-31T09:55:50;8.00;;;5.63;;
76733;SDS011;65660;53.288;14.666;2023-10-31T10:00:51;8.02;;;5.72;;
76733;SDS011;65660;53.288;14.666;2023-10-31T10:05:52;6.13;;;5.03;;
76733;SDS011;65660;53.288;14.666;2023-10-31T10:10:52;10.20;;;5.78;;
76733;SDS011;65660;53.288;14.666;2023-10-31T10:15:53;5.47;;;4.95;;
76733;SDS011;65660;53.288;14.666;2023-10-31T10:20:54;5.47;;;4.97;;
76733;SDS011;65660;53.288;14.666;2023-10-31T10:26:04;6.13;;;4.57;;
76733;SDS011;65660;53.288;14.666;2023-10-31T10:31:04;6.43;;;4.10;;
76733;SDS011;65660;53.288;14.666;2023-10-31T10:36:05;4.88;;;4.20;;
76733;SDS011;65660;53.288;14.666;2023-10-31T10:41:06;7.00;;;3.92;;
76733;SDS011;65660;53.288;14.666;2023-10-31T10:46:07;3.83;;;3.53;;
76733;SDS011;65660;53.288;14.666;2023-10-31T10:51:16;3.50;;;3.20;;
76733;SDS011;65660;53.288;14.666;2023-10-31T10:56:28;4.95;;;3.28;;
76733;SDS011;65660;53.288;14.666;2023-10-31T11:01:33;2.85;;;2.53;;
76733;SDS011;65660;53.288;14.666;2023-10-31T11:06:35;2.00;;;1.90;;
76733;SDS011;65660;53.288;14.666;2023-10-31T11:11:40;2.57;;;2.37;;
76733;SDS011;65660;53.288;14.666;2023-10-31T11:16:42;2.53;;;2.40;;
76733;SDS011;65660;53.288;14.666;2023-10-31T11:22:01;3.93;;;1.60;;
76733;SDS011;65660;53.288;14.666;2023-10-31T11:27:02;3.07;;;1.40;;
76733;SDS011;65660;53.288;14.666;2023-10-31T11:32:07;5.45;;;1.80;;
76733;SDS011;65660;53.288;14.666;2023-10-31T11:42:38;2.10;;;1.50;;
76733;SDS011;65660;53.288;14.666;2023-10-31T11:47:47;2.33;;;1.53;;
76733;SDS011;65660;53.288;14.666;2023-10-31T11:53:00;1.50;;;1.40;;
76733;SDS011;65660;53.288;14.666;2023-10-31T11:58:20;1.80;;;1.13;;
76733;SDS011;65660;53.288;14.666;2023-10-31T12:03:25;2.67;;;1.57;;
76733;SDS011;65660;53.288;14.666;2023-10-31T12:08:30;2.80;;;1.40;;
76733;SDS011;65660;53.288;14.666;2023-10-31T12:13:41;1.30;;;1.20;;
76733;SDS011;65660;53.288;14.666;2023-10-31T12:18:59;1.88;;;1.40;;
76733;SDS011;65660;53.288;14.666;2023-10-31T12:24:04;1.30;;;1.20;;
76733;SDS011;65660;53.288;14.666;2023-10-31T12:29:15;1.63;;;1.33;;
76733;SDS011;65660;53.288;14.666;2023-10-31T12:34:17;1.38;;;1.15;;
76733;SDS011;65660;53.288;14.666;2023-10-31T12:39:22;2.35;;;1.10;;
76733;SDS011;65660;53.288;14.666;2023-10-31T12:44:25;2.55;;;1.02;;
76733;SDS011;65660;53.288;14.666;2023-10-31T12:49:26;1.38;;;1.27;;
76733;SDS011;65660;53.288;14.666;2023-10-31T12:54:27;2.72;;;1.20;;
76733;SDS011;65660;53.288;14.666;2023-10-31T12:59:28;2.20;;;1.20;;
76733;SDS011;65660;53.288;14.666;2023-10-31T13:04:29;1.48;;;1.20;;
76733;SDS011;65660;53.288;14.666;2023-10-31T13:09:31;3.13;;;1.23;;
76733;SDS011;65660;53.288;14.666;2023-10-31T13:14:35;1.52;;;1.08;;
76733;SDS011;65660;53.288;14.666;2023-10-31T13:19:36;1.63;;;1.27;;
76733;SDS011;65660;53.288;14.666;2023-10-31T13:24:36;3.40;;;1.35;;
76733;SDS011;65660;53.288;14.666;2023-10-31T13:29:37;4.63;;;1.60;;
76733;SDS011;65660;53.288;14.666;2023-10-31T13:34:37;5.10;;;1.30;;
76733;SDS011;65660;53.288;14.666;2023-10-31T13:39:38;1.35;;;0.90;;
76733;SDS011;65660;53.288;14.666;2023-10-31T13:44:39;2.93;;;1.77;;
76733;SDS011;65660;53.288;14.666;2023-10-31T13:49:39;4.05;;;1.80;;
76733;SDS011;65660;53.288;14.666;2023-10-31T13:54:40;3.28;;;1.00;;
76733;SDS011;65660;53.288;14.666;2023-10-31T13:59:40;1.90;;;1.30;;
76733;SDS011;65660;53.288;14.666;2023-10-31T14:04:41;3.08;;;1.50;;
76733;SDS011;65660;53.288;14.666;2023-10-31T14:09:41;2.45;;;1.50;;
76733;SDS011;65660;53.288;14.666;2023-10-31T14:14:42;1.27;;;1.17;;
76733;SDS011;65660;53.288;14.666;2023-10-31T14:19:42;2.33;;;1.30;;
76733;SDS011;65660;53.288;14.666;2023-10-31T14:24:43;1.40;;;1.30;;
76733;SDS011;65660;53.288;14.666;2023-10-31T14:29:44;1.50;;;1.40;;
76733;SDS011;65660;53.288;14.666;2023-10-31T14:34:44;2.30;;;1.70;;
76733;SDS011;65660;53.288;14.666;2023-10-31T14:39:45;1.20;;;1.20;;
76733;SDS011;65660;53.288;14.666;2023-10-31T14:44:46;2.27;;;1.90;;
76733;SDS011;65660;53.288;14.666;2023-10-31T14:49:46;1.30;;;1.20;;
76733;SDS011;65660;53.288;14.666;2023-10-31T14:54:47;1.42;;;1.20;;
76733;SDS011;65660;53.288;14.666;2023-10-31T14:59:47;2.77;;;1.73;;
76733;SDS011;65660;53.288;14.666;2023-10-31T15:04:48;3.33;;;1.20;;
76733;SDS011;65660;53.288;14.666;2023-10-31T15:09:48;2.03;;;1.20;;
76733;SDS011;65660;53.288;14.666;2023-10-31T15:14:49;1.10;;;1.00;;
76733;SDS011;65660;53.288;14.666;2023-10-31T15:19:49;2.10;;;0.90;;
76733;SDS011;65660;53.288;14.666;2023-10-31T15:24:50;1.83;;;1.20;;
76733;SDS011;65660;53.288;14.666;2023-10-31T15:29:50;3.87;;;0.80;;
76733;SDS011;65660;53.288;14.666;2023-10-31T15:34:51;1.30;;;0.60;;
76733;SDS011;65660;53.288;14.666;2023-10-31T15:39:51;1.67;;;0.63;;
76733;SDS011;65660;53.288;14.666;2023-10-31T15:44:52;0.60;;;0.60;;
76733;SDS011;65660;53.288;14.666;2023-10-31T15:49:52;2.23;;;0.70;;
76733;SDS011;65660;53.288;14.666;2023-10-31T15:54:53;0.87;;;0.80;;
76733;SDS011;65660;53.288;14.666;2023-10-31T15:59:54;0.93;;;0.80;;
76733;SDS011;65660;53.288;14.666;2023-10-31T16:04:54;3.03;;;0.80;;
76733;SDS011;65660;53.288;14.666;2023-10-31T16:09:55;1.43;;;1.07;;
76733;SDS011;65660;53.288;14.666;2023-10-31T16:14:55;1.27;;;0.80;;
76733;SDS011;65660;53.288;14.666;2023-10-31T16:19:56;1.17;;;0.90;;
76733;SDS011;65660;53.288;14.666;2023-10-31T16:24:56;1.57;;;0.87;;
76733;SDS011;65660;53.288;14.666;2023-10-31T16:29:57;1.13;;;0.60;;
76733;SDS011;65660;53.288;14.666;2023-10-31T16:34:57;1.60;;;0.70;;
76733;SDS011;65660;53.288;14.666;2023-10-31T16:39:58;0.73;;;0.73;;
76733;SDS011;65660;53.288;14.666;2023-10-31T16:44:59;1.20;;;0.97;;
76733;SDS011;65660;53.288;14.666;2023-10-31T16:49:59;1.53;;;0.90;;
76733;SDS011;65660;53.288;14.666;2023-10-31T16:55:01;0.83;;;0.70;;
76733;SDS011;65660;53.288;14.666;2023-10-31T17:00:02;1.40;;;0.80;;
76733;SDS011;65660;53.288;14.666;2023-10-31T17:05:03;0.77;;;0.70;;
76733;SDS011;65660;53.288;14.666;2023-10-31T17:10:04;1.00;;;0.97;;
76733;SDS011;65660;53.288;14.666;2023-10-31T17:15:05;1.07;;;0.97;;
76733;SDS011;65660;53.288;14.666;2023-10-31T17:20:06;0.93;;;0.90;;
76733;SDS011;65660;53.288;14.666;2023-10-31T17:25:07;1.50;;;1.07;;
76733;SDS011;65660;53.288;14.666;2023-10-31T17:30:08;0.97;;;0.97;;
76733;SDS011;65660;53.288;14.666;2023-10-31T17:35:08;0.70;;;0.70;;
76733;SDS011;65660;53.288;14.666;2023-10-31T17:40:09;1.87;;;0.80;;
76733;SDS011;65660;53.288;14.666;2023-10-31T17:45:10;2.20;;;1.13;;
76733;SDS011;65660;53.288;14.666;2023-10-31T17:50:10;2.83;;;0.80;;
76733;SDS011;65660;53.288;14.666;2023-10-31T17:55:11;1.30;;;1.00;;
76733;SDS011;65660;53.288;14.666;2023-10-31T18:00:12;2.97;;;0.90;;
76733;SDS011;65660;53.288;14.666;2023-10-31T18:05:13;1.80;;;1.20;;
76733;SDS011;65660;53.288;14.666;2023-10-31T18:10:13;1.50;;;1.40;;
76733;SDS011;65660;53.288;14.666;2023-10-31T18:15:14;3.53;;;1.40;;
76733;SDS011;65660;53.288;14.666;2023-10-31T18:20:15;2.33;;;1.70;;
76733;SDS011;65660;53.288;14.666;2023-10-31T18:25:15;2.20;;;2.10;;
76733;SDS011;65660;53.288;14.666;2023-10-31T18:30:16;1.50;;;1.40;;
76733;SDS011;65660;53.288;14.666;2023-10-31T18:35:16;1.50;;;1.40;;
76733;SDS011;65660;53.288;14.666;2023-10-31T18:40:17;1.73;;;1.40;;
76733;SDS011;65660;53.288;14.666;2023-10-31T18:45:17;3.33;;;1.10;;
76733;SDS011;65660;53.288;14.666;2023-10-31T18:50:18;2.00;;;1.37;;
76733;SDS011;65660;53.288;14.666;2023-10-31T18:55:19;1.40;;;1.30;;
76733;SDS011;65660;53.288;14.666;2023-10-31T19:00:19;1.47;;;1.20;;
76733;SDS011;65660;53.288;14.666;2023-10-31T19:05:20;1.23;;;1.13;;
76733;SDS011;65660;53.288;14.666;2023-10-31T19:10:21;1.43;;;1.00;;
76733;SDS011;65660;53.288;14.666;2023-10-31T19:15:21;1.83;;;1.10;;
76733;SDS011;65660;53.288;14.666;2023-10-31T19:20:22;1.30;;;1.20;;
76733;SDS011;65660;53.288;14.666;2023-10-31T19:25:22;1.53;;;1.17;;
76733;SDS011;65660;53.288;14.666;2023-10-31T19:30:23;1.33;;;1.10;;
76733;SDS011;65660;53.288;14.666;2023-10-31T19:35:23;2.60;;;1.10;;
76733;SDS011;65660;53.288;14.666;2023-10-31T19:40:24;2.03;;;1.07;;
76733;SDS011;65660;53.288;14.666;2023-10-31T19:45:25;2.83;;;1.20;;
76733;SDS011;65660;53.288;14.666;2023-10-31T19:50:26;1.43;;;1.30;;
76733;SDS011;65660;53.288;14.666;2023-10-31T19:55:27;0.93;;;0.90;;
76733;SDS011;65660;53.288;14.666;2023-10-31T20:00:28;1.63;;;0.83;;
76733;SDS011;65660;53.288;14.666;2023-10-31T20:05:28;2.90;;;0.80;;
76733;SDS011;65660;53.288;14.666;2023-10-31T20:10:30;1.37;;;1.10;;
76733;SDS011;65660;53.288;14.666;2023-10-31T20:15:30;2.30;;;1.00;;
76733;SDS011;65660;53.288;14.666;2023-10-31T20:20:31;2.83;;;1.03;;
76733;SDS011;65660;53.288;14.666;2023-10-31T20:25:32;2.93;;;1.00;;
76733;SDS011;65660;53.288;14.666;2023-10-31T20:30:33;2.67;;;1.00;;
76733;SDS011;65660;53.288;14.666;2023-10-31T20:35:33;1.73;;;1.00;;
76733;SDS011;65660;53.288;14.666;2023-10-31T20:40:34;1.40;;;1.30;;
76733;SDS011;65660;53.288;14.666;2023-10-31T20:45:35;2.03;;;1.50;;
76733;SDS011;65660;53.288;14.666;2023-10-31T20:50:36;1.13;;;0.93;;
76733;SDS011;65660;53.288;14.666;2023-10-31T20:55:37;1.83;;;0.90;;
76733;SDS011;65660;53.288;14.666;2023-10-31T21:00:37;1.30;;;0.93;;
76733;SDS011;65660;53.288;14.666;2023-10-31T21:05:38;1.60;;;1.00;;
76733;SDS011;65660;53.288;14.666;2023-10-31T21:10:38;1.40;;;1.30;;
76733;SDS011;65660;53.288;14.666;2023-10-31T21:15:39;1.97;;;1.60;;
76733;SDS011;65660;53.288;14.666;2023-10-31T21:20:39;3.00;;;1.70;;
76733;SDS011;65660;53.288;14.666;2023-10-31T21:25:40;1.40;;;1.30;;
76733;SDS011;65660;53.288;14.666;2023-10-31T21:30:41;2.50;;;1.30;;
76733;SDS011;65660;53.288;14.666;2023-10-31T21:35:42;1.77;;;1.30;;
76733;SDS011;65660;53.288;14.666;2023-10-31T21:40:42;2.87;;;1.50;;
76733;SDS011;65660;53.288;14.666;2023-10-31T21:45:43;1.47;;;1.20;;
76733;SDS011;65660;53.288;14.666;2023-10-31T21:50:44;2.40;;;1.60;;
76733;SDS011;65660;53.288;14.666;2023-10-31T21:55:44;1.43;;;1.20;;
76733;SDS011;65660;53.288;14.666;2023-10-31T22:00:45;1.63;;;1.23;;
76733;SDS011;65660;53.288;14.666;2023-10-31T22:05:46;2.87;;;1.13;;
76733;SDS011;65660;53.288;14.666;2023-10-31T22:10:46;1.30;;;1.20;;
76733;SDS011;65660;53.288;14.666;2023-10-31T22:15:47;2.50;;;2.27;;
76733;SDS011;65660;53.288;14.666;2023-10-31T22:20:47;3.47;;;2.10;;
76733;SDS011;65660;53.288;14.666;2023-10-31T22:25:48;1.60;;;1.50;;
76733;SDS011;65660;53.288;14.666;2023-10-31T22:30:48;1.33;;;1.00;;
76733;SDS011;65660;53.288;14.666;2023-10-31T22:35:49;4.90;;;1.40;;
76733;SDS011;65660;53.288;14.666;2023-10-31T22:40:49;2.20;;;1.33;;
76733;SDS011;65660;53.288;14.666;2023-10-31T22:45:50;2.50;;;1.43;;
76733;SDS011;65660;53.288;14.666;2023-10-31T22:50:51;1.93;;;1.43;;
76733;SDS011;65660;53.288;14.666;2023-10-31T22:55:51;1.63;;;1.40;;
76733;SDS011;65660;53.288;14.666;2023-10-31T23:00:52;3.90;;;2.80;;
76733;SDS011;65660;53.288;14.666;2023-10-31T23:05:52;1.63;;;1.23;;
76733;SDS011;65660;53.288;14.666;2023-10-31T23:10:53;2.43;;;2.10;;
76733;SDS011;65660;53.288;14.666;2023-10-31T23:15:53;1.80;;;1.70;;
76733;SDS011;65660;53.288;14.666;2023-10-31T23:20:54;2.33;;;2.10;;
76733;SDS011;65660;53.288;14.666;2023-10-31T23:25:55;1.50;;;1.40;;
76733;SDS011;65660;53.288;14.666;2023-10-31T23:30:56;1.23;;;1.13;;
76733;SDS011;65660;53.288;14.666;2023-10-31T23:35:58;1.67;;;1.33;;
76733;SDS011;65660;53.288;14.666;2023-10-31T23:40:58;5.40;;;1.90;;
76733;SDS011;65660;53.288;14.666;2023-10-31T23:45:59;3.83;;;1.50;;
76733;SDS011;65660;53.288;14.666;2023-10-31T23:51:00;2.30;;;1.80;;
76733;SDS011;65660;53.288;14.666;2023-10-31T23:56:00;3.57;;;1.40;;
